sensor_id;sensor_type;location;lat;lon;timestamp;P1;durP1;ratioP1;P2;durP2;ratioP2
67665;SDS011;54448;51.472;-2.574;2023-08-30T00:00:20;19.83;;;3.80;;
67665;SDS011;54448;51.472;-2.574;2023-08-30T00:02:46;20.38;;;3.63;;
67665;SDS011;54448;51.472;-2.574;2023-08-30T00:05:13;19.73;;;3.45;;
67665;SDS011;54448;51.472;-2.574;2023-08-30T00:07:38;15.82;;;3.80;;
67665;SDS011;54448;51.472;-2.574;2023-08-30T00:10:05;8.60;;;3.00;;
67665;SDS011;54448;51.472;-2.574;2023-08-30T00:12:35;17.42;;;4.03;;
67665;SDS011;54448;51.472;-2.574;2023-08-30T00:15:01;19.60;;;3.63;;
67665;SDS011;54448;51.472;-2.574;2023-08-30T00:17:26;18.63;;;4.00;;
67665;SDS011;54448;51.472;-2.574;2023-08-30T00:19:52;19.10;;;3.10;;
67665;SDS011;54448;51.472;-2.574;2023-08-30T00:22:20;23.83;;;3.65;;
67665;SDS011;54448;51.472;-2.574;2023-08-30T00:24:46;23.00;;;3.55;;
67665;SDS011;54448;51.472;-2.574;2023-08-30T00:27:12;27.52;;;4.60;;
67665;SDS011;54448;51.472;-2.574;2023-08-30T00:29:37;22.80;;;4.47;;
67665;SDS011;54448;51.472;-2.574;2023-08-30T00:32:02;17.75;;;3.47;;
67665;SDS011;54448;51.472;-2.574;2023-08-30T00:34:28;15.57;;;3.63;;
67665;SDS011;54448;51.472;-2.574;2023-08-30T00:36:53;16.67;;;3.83;;
67665;SDS011;54448;51.472;-2.574;2023-08-30T00:39:19;19.75;;;4.05;;
67665;SDS011;54448;51.472;-2.574;2023-08-30T00:41:44;15.27;;;3.65;;
67665;SDS011;54448;51.472;-2.574;2023-08-30T00:44:09;13.43;;;3.45;;
67665;SDS011;54448;51.472;-2.574;2023-08-30T00:46:35;14.13;;;3.70;;
67665;SDS011;54448;51.472;-2.574;2023-08-30T00:49:00;28.85;;;5.15;;
67665;SDS011;54448;51.472;-2.574;2023-08-30T00:51:26;12.30;;;3.25;;
67665;SDS011;54448;51.472;-2.574;2023-08-30T00:53:53;16.00;;;3.65;;
67665;SDS011;54448;51.472;-2.574;2023-08-30T00:56:19;20.23;;;3.58;;
67665;SDS011;54448;51.472;-2.574;2023-08-30T00:58:44;14.73;;;3.53;;
67665;SDS011;54448;51.472;-2.574;2023-08-30T01:01:10;16.95;;;3.45;;
67665;SDS011;54448;51.472;-2.574;2023-08-30T01:03:37;16.67;;;3.95;;
67665;SDS011;54448;51.472;-2.574;2023-08-30T01:06:03;19.88;;;3.85;;
67665;SDS011;54448;51.472;-2.574;2023-08-30T01:08:28;14.80;;;3.95;;
67665;SDS011;54448;51.472;-2.574;2023-08-30T01:11:01;18.52;;;3.95;;
67665;SDS011;54448;51.472;-2.574;2023-08-30T01:13:29;12.30;;;3.47;;
67665;SDS011;54448;51.472;-2.574;2023-08-30T01:15:56;21.42;;;4.30;;
67665;SDS011;54448;51.472;-2.574;2023-08-30T01:18:24;10.10;;;3.50;;
67665;SDS011;54448;51.472;-2.574;2023-08-30T01:20:51;14.23;;;3.50;;
67665;SDS011;54448;51.472;-2.574;2023-08-30T01:28:52;16.67;;;3.63;;
67665;SDS011;54448;51.472;-2.574;2023-08-30T01:31:18;14.00;;;4.40;;
67665;SDS011;54448;51.472;-2.574;2023-08-30T01:33:43;13.70;;;4.43;;
67665;SDS011;54448;51.472;-2.574;2023-08-30T01:36:09;12.63;;;3.50;;
67665;SDS011;54448;51.472;-2.574;2023-08-30T01:38:34;16.48;;;3.92;;
67665;SDS011;54448;51.472;-2.574;2023-08-30T01:41:00;13.95;;;3.70;;
67665;SDS011;54448;51.472;-2.574;2023-08-30T01:43:26;15.27;;;3.83;;
67665;SDS011;54448;51.472;-2.574;2023-08-30T01:45:53;10.70;;;3.58;;
67665;SDS011;54448;51.472;-2.574;2023-08-30T01:48:21;16.50;;;3.65;;
67665;SDS011;54448;51.472;-2.574;2023-08-30T01:50:47;14.02;;;3.90;;
67665;SDS011;54448;51.472;-2.574;2023-08-30T01:53:14;13.15;;;3.88;;
67665;SDS011;54448;51.472;-2.574;2023-08-30T01:55:39;16.50;;;4.30;;
67665;SDS011;54448;51.472;-2.574;2023-08-30T01:58:05;18.85;;;5.00;;
67665;SDS011;54448;51.472;-2.574;2023-08-30T02:00:31;14.80;;;4.32;;
67665;SDS011;54448;51.472;-2.574;2023-08-30T02:02:56;15.75;;;3.60;;
67665;SDS011;54448;51.472;-2.574;2023-08-30T02:05:22;21.23;;;4.57;;
67665;SDS011;54448;51.472;-2.574;2023-08-30T02:07:54;14.93;;;4.13;;
67665;SDS011;54448;51.472;-2.574;2023-08-30T02:10:31;15.25;;;4.38;;
67665;SDS011;54448;51.472;-2.574;2023-08-30T02:12:59;17.23;;;3.97;;
67665;SDS011;54448;51.472;-2.574;2023-08-30T02:15:25;22.95;;;4.30;;
67665;SDS011;54448;51.472;-2.574;2023-08-30T02:17:52;21.45;;;4.65;;
67665;SDS011;54448;51.472;-2.574;2023-08-30T02:20:17;15.35;;;3.88;;
67665;SDS011;54448;51.472;-2.574;2023-08-30T02:22:43;20.75;;;5.25;;
67665;SDS011;54448;51.472;-2.574;2023-08-30T02:25:08;15.75;;;3.88;;
67665;SDS011;54448;51.472;-2.574;2023-08-30T02:27:35;17.80;;;3.70;;
67665;SDS011;54448;51.472;-2.574;2023-08-30T02:30:00;16.35;;;4.03;;
67665;SDS011;54448;51.472;-2.574;2023-08-30T02:32:26;17.80;;;3.65;;
67665;SDS011;54448;51.472;-2.574;2023-08-30T02:34:51;19.25;;;4.10;;
67665;SDS011;54448;51.472;-2.574;2023-08-30T02:37:17;15.43;;;3.65;;
67665;SDS011;54448;51.472;-2.574;2023-08-30T02:39:43;18.35;;;3.92;;
67665;SDS011;54448;51.472;-2.574;2023-08-30T02:42:08;16.10;;;3.92;;
67665;SDS011;54448;51.472;-2.574;2023-08-30T02:44:34;13.07;;;3.47;;
67665;SDS011;54448;51.472;-2.574;2023-08-30T02:46:59;13.57;;;3.40;;
67665;SDS011;54448;51.472;-2.574;2023-08-30T02:49:25;14.32;;;3.78;;
67665;SDS011;54448;51.472;-2.574;2023-08-30T02:51:50;15.30;;;3.60;;
67665;SDS011;54448;51.472;-2.574;2023-08-30T02:54:15;19.40;;;4.55;;
67665;SDS011;54448;51.472;-2.574;2023-08-30T02:56:41;10.70;;;3.67;;
67665;SDS011;54448;51.472;-2.574;2023-08-30T02:59:08;14.40;;;3.70;;
67665;SDS011;54448;51.472;-2.574;2023-08-30T03:01:33;25.48;;;4.18;;
67665;SDS011;54448;51.472;-2.574;2023-08-30T03:03:59;20.35;;;3.70;;
67665;SDS011;54448;51.472;-2.574;2023-08-30T03:06:24;16.85;;;3.40;;
67665;SDS011;54448;51.472;-2.574;2023-08-30T03:08:49;21.27;;;3.42;;
67665;SDS011;54448;51.472;-2.574;2023-08-30T03:11:15;12.50;;;4.47;;
67665;SDS011;54448;51.472;-2.574;2023-08-30T03:13:40;10.43;;;3.35;;
67665;SDS011;54448;51.472;-2.574;2023-08-30T03:18:37;10.95;;;3.40;;
67665;SDS011;54448;51.472;-2.574;2023-08-30T03:21:03;14.90;;;3.83;;
67665;SDS011;54448;51.472;-2.574;2023-08-30T03:23:30;19.10;;;3.65;;
67665;SDS011;54448;51.472;-2.574;2023-08-30T03:25:56;13.82;;;3.67;;
67665;SDS011;54448;51.472;-2.574;2023-08-30T03:28:22;9.93;;;3.65;;
67665;SDS011;54448;51.472;-2.574;2023-08-30T03:30:47;14.20;;;4.00;;
67665;SDS011;54448;51.472;-2.574;2023-08-30T03:33:13;15.98;;;3.65;;
67665;SDS011;54448;51.472;-2.574;2023-08-30T03:35:38;16.90;;;4.18;;
67665;SDS011;54448;51.472;-2.574;2023-08-30T03:38:04;12.82;;;3.70;;
67665;SDS011;54448;51.472;-2.574;2023-08-30T03:40:29;19.55;;;3.80;;
67665;SDS011;54448;51.472;-2.574;2023-08-30T03:42:55;17.42;;;4.05;;
67665;SDS011;54448;51.472;-2.574;2023-08-30T03:45:20;16.10;;;3.92;;
67665;SDS011;54448;51.472;-2.574;2023-08-30T03:47:46;16.25;;;3.30;;
67665;SDS011;54448;51.472;-2.574;2023-08-30T03:50:11;19.25;;;3.58;;
67665;SDS011;54448;51.472;-2.574;2023-08-30T03:52:36;21.75;;;3.60;;
67665;SDS011;54448;51.472;-2.574;2023-08-30T03:55:02;14.18;;;3.33;;
67665;SDS011;54448;51.472;-2.574;2023-08-30T03:57:27;19.65;;;3.22;;
67665;SDS011;54448;51.472;-2.574;2023-08-30T03:59:53;17.20;;;3.95;;
67665;SDS011;54448;51.472;-2.574;2023-08-30T04:02:18;17.60;;;3.45;;
67665;SDS011;54448;51.472;-2.574;2023-08-30T04:04:48;18.60;;;3.70;;
67665;SDS011;54448;51.472;-2.574;2023-08-30T04:07:13;19.58;;;3.25;;
67665;SDS011;54448;51.472;-2.574;2023-08-30T04:09:39;19.85;;;4.13;;
67665;SDS011;54448;51.472;-2.574;2023-08-30T04:12:04;18.20;;;4.40;;
67665;SDS011;54448;51.472;-2.574;2023-08-30T04:14:30;17.23;;;3.58;;
67665;SDS011;54448;51.472;-2.574;2023-08-30T04:16:55;12.82;;;3.05;;
67665;SDS011;54448;51.472;-2.574;2023-08-30T04:19:21;19.13;;;3.33;;
67665;SDS011;54448;51.472;-2.574;2023-08-30T04:21:46;14.05;;;3.05;;
67665;SDS011;54448;51.472;-2.574;2023-08-30T04:24:12;17.48;;;4.30;;
67665;SDS011;54448;51.472;-2.574;2023-08-30T04:26:37;11.00;;;3.55;;
67665;SDS011;54448;51.472;-2.574;2023-08-30T04:29:02;15.52;;;3.80;;
67665;SDS011;54448;51.472;-2.574;2023-08-30T04:31:28;12.65;;;3.90;;
67665;SDS011;54448;51.472;-2.574;2023-08-30T04:33:54;19.08;;;3.97;;
67665;SDS011;54448;51.472;-2.574;2023-08-30T04:36:20;19.20;;;4.47;;
67665;SDS011;54448;51.472;-2.574;2023-08-30T04:38:46;13.45;;;2.70;;
67665;SDS011;54448;51.472;-2.574;2023-08-30T04:41:11;13.60;;;3.60;;
67665;SDS011;54448;51.472;-2.574;2023-08-30T04:43:37;20.45;;;3.70;;
67665;SDS011;54448;51.472;-2.574;2023-08-30T04:46:02;20.85;;;3.60;;
67665;SDS011;54448;51.472;-2.574;2023-08-30T04:48:28;18.60;;;3.10;;
67665;SDS011;54448;51.472;-2.574;2023-08-30T04:51:00;17.40;;;3.33;;
67665;SDS011;54448;51.472;-2.574;2023-08-30T04:53:26;12.93;;;3.20;;
67665;SDS011;54448;51.472;-2.574;2023-08-30T04:55:51;14.65;;;3.50;;
67665;SDS011;54448;51.472;-2.574;2023-08-30T04:58:16;19.85;;;3.10;;
67665;SDS011;54448;51.472;-2.574;2023-08-30T05:00:42;12.23;;;3.20;;
67665;SDS011;54448;51.472;-2.574;2023-08-30T05:03:07;12.25;;;3.03;;
67665;SDS011;54448;51.472;-2.574;2023-08-30T05:05:32;11.18;;;3.35;;
67665;SDS011;54448;51.472;-2.574;2023-08-30T05:07:59;17.00;;;3.65;;
67665;SDS011;54448;51.472;-2.574;2023-08-30T05:10:24;14.70;;;3.50;;
67665;SDS011;54448;51.472;-2.574;2023-08-30T05:12:50;16.45;;;3.53;;
67665;SDS011;54448;51.472;-2.574;2023-08-30T05:15:17;9.68;;;3.22;;
67665;SDS011;54448;51.472;-2.574;2023-08-30T05:17:42;12.43;;;3.75;;
67665;SDS011;54448;51.472;-2.574;2023-08-30T05:20:08;17.63;;;4.30;;
67665;SDS011;54448;51.472;-2.574;2023-08-30T05:22:34;21.48;;;4.57;;
67665;SDS011;54448;51.472;-2.574;2023-08-30T05:24:59;19.63;;;3.88;;
67665;SDS011;54448;51.472;-2.574;2023-08-30T05:27:25;27.05;;;4.07;;
67665;SDS011;54448;51.472;-2.574;2023-08-30T05:29:51;12.35;;;3.70;;
67665;SDS011;54448;51.472;-2.574;2023-08-30T05:32:16;24.10;;;3.90;;
67665;SDS011;54448;51.472;-2.574;2023-08-30T05:34:42;22.08;;;4.40;;
67665;SDS011;54448;51.472;-2.574;2023-08-30T05:37:07;36.30;;;4.50;;
67665;SDS011;54448;51.472;-2.574;2023-08-30T05:39:33;20.63;;;4.25;;
67665;SDS011;54448;51.472;-2.574;2023-08-30T05:41:59;27.50;;;4.97;;
67665;SDS011;54448;51.472;-2.574;2023-08-30T05:44:24;18.40;;;4.40;;
67665;SDS011;54448;51.472;-2.574;2023-08-30T05:46:50;23.80;;;5.10;;
67665;SDS011;54448;51.472;-2.574;2023-08-30T05:49:15;23.88;;;4.57;;
67665;SDS011;54448;51.472;-2.574;2023-08-30T05:51:40;26.15;;;5.50;;
67665;SDS011;54448;51.472;-2.574;2023-08-30T05:54:06;18.30;;;4.80;;
67665;SDS011;54448;51.472;-2.574;2023-08-30T05:56:32;20.33;;;4.40;;
67665;SDS011;54448;51.472;-2.574;2023-08-30T05:58:57;14.38;;;3.95;;
67665;SDS011;54448;51.472;-2.574;2023-08-30T06:01:22;22.95;;;3.90;;
67665;SDS011;54448;51.472;-2.574;2023-08-30T06:03:48;26.25;;;5.28;;
67665;SDS011;54448;51.472;-2.574;2023-08-30T06:06:13;17.80;;;4.60;;
67665;SDS011;54448;51.472;-2.574;2023-08-30T06:08:39;17.80;;;3.90;;
67665;SDS011;54448;51.472;-2.574;2023-08-30T06:11:04;18.77;;;4.10;;
67665;SDS011;54448;51.472;-2.574;2023-08-30T06:13:29;23.58;;;4.13;;
67665;SDS011;54448;51.472;-2.574;2023-08-30T06:15:55;14.85;;;4.07;;
67665;SDS011;54448;51.472;-2.574;2023-08-30T06:18:20;20.17;;;4.28;;
67665;SDS011;54448;51.472;-2.574;2023-08-30T06:20:46;18.60;;;4.25;;
67665;SDS011;54448;51.472;-2.574;2023-08-30T06:23:11;15.27;;;4.28;;
67665;SDS011;54448;51.472;-2.574;2023-08-30T06:25:38;17.38;;;5.30;;
67665;SDS011;54448;51.472;-2.574;2023-08-30T06:28:03;20.70;;;5.43;;
67665;SDS011;54448;51.472;-2.574;2023-08-30T06:30:29;13.82;;;5.07;;
67665;SDS011;54448;51.472;-2.574;2023-08-30T06:32:55;13.18;;;3.75;;
67665;SDS011;54448;51.472;-2.574;2023-08-30T06:35:21;13.18;;;3.78;;
67665;SDS011;54448;51.472;-2.574;2023-08-30T06:37:46;18.02;;;3.90;;
67665;SDS011;54448;51.472;-2.574;2023-08-30T06:40:11;16.42;;;4.47;;
67665;SDS011;54448;51.472;-2.574;2023-08-30T06:42:37;13.57;;;3.65;;
67665;SDS011;54448;51.472;-2.574;2023-08-30T06:45:03;22.02;;;3.67;;
67665;SDS011;54448;51.472;-2.574;2023-08-30T06:47:29;16.50;;;3.83;;
67665;SDS011;54448;51.472;-2.574;2023-08-30T06:49:54;8.60;;;2.72;;
67665;SDS011;54448;51.472;-2.574;2023-08-30T06:52:19;16.33;;;3.55;;
67665;SDS011;54448;51.472;-2.574;2023-08-30T06:54:45;17.63;;;3.58;;
67665;SDS011;54448;51.472;-2.574;2023-08-30T06:57:10;16.73;;;3.60;;
67665;SDS011;54448;51.472;-2.574;2023-08-30T06:59:35;12.02;;;2.90;;
67665;SDS011;54448;51.472;-2.574;2023-08-30T07:02:01;12.30;;;3.25;;
67665;SDS011;54448;51.472;-2.574;2023-08-30T07:04:27;14.82;;;2.90;;
67665;SDS011;54448;51.472;-2.574;2023-08-30T07:06:53;19.85;;;3.88;;
67665;SDS011;54448;51.472;-2.574;2023-08-30T07:09:18;14.90;;;3.45;;
67665;SDS011;54448;51.472;-2.574;2023-08-30T07:11:43;19.55;;;4.32;;
67665;SDS011;54448;51.472;-2.574;2023-08-30T07:14:10;14.90;;;3.65;;
67665;SDS011;54448;51.472;-2.574;2023-08-30T07:16:35;17.83;;;3.22;;
67665;SDS011;54448;51.472;-2.574;2023-08-30T07:19:00;12.90;;;3.22;;
67665;SDS011;54448;51.472;-2.574;2023-08-30T07:21:27;9.82;;;2.33;;
67665;SDS011;54448;51.472;-2.574;2023-08-30T07:23:52;13.25;;;2.33;;
67665;SDS011;54448;51.472;-2.574;2023-08-30T07:26:18;10.05;;;2.10;;
67665;SDS011;54448;51.472;-2.574;2023-08-30T07:28:43;12.57;;;2.38;;
67665;SDS011;54448;51.472;-2.574;2023-08-30T07:31:08;11.05;;;2.10;;
67665;SDS011;54448;51.472;-2.574;2023-08-30T07:33:35;5.90;;;1.60;;
67665;SDS011;54448;51.472;-2.574;2023-08-30T07:36:00;16.30;;;2.38;;
67665;SDS011;54448;51.472;-2.574;2023-08-30T07:38:26;6.45;;;1.70;;
67665;SDS011;54448;51.472;-2.574;2023-08-30T07:40:51;13.98;;;1.70;;
67665;SDS011;54448;51.472;-2.574;2023-08-30T07:43:16;9.27;;;1.80;;
67665;SDS011;54448;51.472;-2.574;2023-08-30T07:45:42;20.13;;;2.28;;
67665;SDS011;54448;51.472;-2.574;2023-08-30T07:48:07;11.07;;;1.90;;
67665;SDS011;54448;51.472;-2.574;2023-08-30T07:50:32;21.60;;;1.92;;
67665;SDS011;54448;51.472;-2.574;2023-08-30T07:52:58;16.75;;;2.40;;
67665;SDS011;54448;51.472;-2.574;2023-08-30T07:55:23;13.00;;;1.67;;
67665;SDS011;54448;51.472;-2.574;2023-08-30T07:57:48;7.28;;;1.70;;
67665;SDS011;54448;51.472;-2.574;2023-08-30T08:00:14;7.72;;;1.40;;
67665;SDS011;54448;51.472;-2.574;2023-08-30T08:02:40;11.25;;;2.10;;
67665;SDS011;54448;51.472;-2.574;2023-08-30T08:05:06;11.20;;;4.50;;
67665;SDS011;54448;51.472;-2.574;2023-08-30T08:07:31;11.40;;;2.20;;
67665;SDS011;54448;51.472;-2.574;2023-08-30T08:09:56;8.60;;;1.60;;
67665;SDS011;54448;51.472;-2.574;2023-08-30T08:12:22;5.25;;;1.50;;
67665;SDS011;54448;51.472;-2.574;2023-08-30T08:14:47;7.40;;;2.00;;
67665;SDS011;54448;51.472;-2.574;2023-08-30T08:17:13;6.75;;;1.70;;
67665;SDS011;54448;51.472;-2.574;2023-08-30T08:19:38;4.60;;;1.50;;
67665;SDS011;54448;51.472;-2.574;2023-08-30T08:22:05;9.23;;;1.98;;
67665;SDS011;54448;51.472;-2.574;2023-08-30T08:24:30;7.03;;;1.70;;
67665;SDS011;54448;51.472;-2.574;2023-08-30T08:26:56;25.52;;;6.35;;
67665;SDS011;54448;51.472;-2.574;2023-08-30T08:29:21;9.73;;;1.63;;
67665;SDS011;54448;51.472;-2.574;2023-08-30T08:31:46;17.15;;;1.98;;
67665;SDS011;54448;51.472;-2.574;2023-08-30T08:34:12;9.52;;;1.67;;
67665;SDS011;54448;51.472;-2.574;2023-08-30T08:36:38;6.90;;;1.38;;
67665;SDS011;54448;51.472;-2.574;2023-08-30T08:39:04;8.25;;;1.60;;
67665;SDS011;54448;51.472;-2.574;2023-08-30T08:41:39;5.03;;;1.50;;
67665;SDS011;54448;51.472;-2.574;2023-08-30T08:44:07;9.32;;;1.88;;
67665;SDS011;54448;51.472;-2.574;2023-08-30T08:46:34;6.47;;;1.52;;
67665;SDS011;54448;51.472;-2.574;2023-08-30T08:49:01;7.80;;;1.67;;
67665;SDS011;54448;51.472;-2.574;2023-08-30T08:51:39;6.40;;;1.35;;
67665;SDS011;54448;51.472;-2.574;2023-08-30T08:54:05;8.07;;;1.42;;
67665;SDS011;54448;51.472;-2.574;2023-08-30T08:56:31;8.88;;;1.83;;
67665;SDS011;54448;51.472;-2.574;2023-08-30T08:58:57;7.30;;;1.42;;
67665;SDS011;54448;51.472;-2.574;2023-08-30T09:01:24;5.43;;;1.08;;
67665;SDS011;54448;51.472;-2.574;2023-08-30T09:03:50;11.30;;;1.90;;
67665;SDS011;54448;51.472;-2.574;2023-08-30T09:06:15;11.32;;;1.70;;
67665;SDS011;54448;51.472;-2.574;2023-08-30T09:08:41;7.00;;;1.35;;
67665;SDS011;54448;51.472;-2.574;2023-08-30T09:11:06;21.85;;;2.17;;
67665;SDS011;54448;51.472;-2.574;2023-08-30T09:13:31;6.07;;;1.42;;
67665;SDS011;54448;51.472;-2.574;2023-08-30T09:15:57;4.80;;;1.50;;
67665;SDS011;54448;51.472;-2.574;2023-08-30T09:18:23;6.75;;;1.45;;
67665;SDS011;54448;51.472;-2.574;2023-08-30T09:20:52;5.35;;;1.63;;
67665;SDS011;54448;51.472;-2.574;2023-08-30T09:23:38;7.60;;;1.40;;
67665;SDS011;54448;51.472;-2.574;2023-08-30T09:26:04;12.02;;;2.03;;
67665;SDS011;54448;51.472;-2.574;2023-08-30T09:28:29;8.40;;;1.50;;
67665;SDS011;54448;51.472;-2.574;2023-08-30T09:30:57;4.88;;;1.40;;
67665;SDS011;54448;51.472;-2.574;2023-08-30T09:33:29;6.97;;;1.33;;
67665;SDS011;54448;51.472;-2.574;2023-08-30T09:35:56;9.48;;;1.90;;
67665;SDS011;54448;51.472;-2.574;2023-08-30T09:38:22;16.63;;;1.88;;
67665;SDS011;54448;51.472;-2.574;2023-08-30T09:40:48;8.43;;;1.50;;
67665;SDS011;54448;51.472;-2.574;2023-08-30T09:43:14;10.63;;;1.70;;
67665;SDS011;54448;51.472;-2.574;2023-08-30T09:45:43;6.95;;;1.48;;
67665;SDS011;54448;51.472;-2.574;2023-08-30T09:48:09;9.50;;;1.60;;
67665;SDS011;54448;51.472;-2.574;2023-08-30T09:50:35;9.95;;;1.50;;
67665;SDS011;54448;51.472;-2.574;2023-08-30T09:53:06;10.57;;;1.85;;
67665;SDS011;54448;51.472;-2.574;2023-08-30T09:55:33;6.07;;;1.30;;
67665;SDS011;54448;51.472;-2.574;2023-08-30T09:57:58;8.82;;;1.40;;
67665;SDS011;54448;51.472;-2.574;2023-08-30T10:00:25;9.57;;;1.60;;
67665;SDS011;54448;51.472;-2.574;2023-08-30T10:02:50;11.35;;;1.73;;
67665;SDS011;54448;51.472;-2.574;2023-08-30T10:05:16;8.38;;;1.52;;
67665;SDS011;54448;51.472;-2.574;2023-08-30T10:07:41;5.40;;;1.77;;
67665;SDS011;54448;51.472;-2.574;2023-08-30T10:10:08;11.70;;;1.83;;
67665;SDS011;54448;51.472;-2.574;2023-08-30T10:12:35;7.80;;;1.30;;
67665;SDS011;54448;51.472;-2.574;2023-08-30T10:15:01;5.43;;;1.48;;
67665;SDS011;54448;51.472;-2.574;2023-08-30T10:17:27;4.25;;;1.20;;
67665;SDS011;54448;51.472;-2.574;2023-08-30T10:19:57;7.30;;;1.40;;
67665;SDS011;54448;51.472;-2.574;2023-08-30T10:22:22;5.25;;;1.08;;
67665;SDS011;54448;51.472;-2.574;2023-08-30T10:24:49;6.72;;;1.40;;
67665;SDS011;54448;51.472;-2.574;2023-08-30T10:27:16;6.72;;;1.05;;
67665;SDS011;54448;51.472;-2.574;2023-08-30T10:29:42;3.20;;;1.02;;
67665;SDS011;54448;51.472;-2.574;2023-08-30T10:32:09;5.40;;;1.20;;
67665;SDS011;54448;51.472;-2.574;2023-08-30T10:34:34;6.30;;;1.20;;
67665;SDS011;54448;51.472;-2.574;2023-08-30T10:37:01;7.95;;;1.20;;
67665;SDS011;54448;51.472;-2.574;2023-08-30T10:39:38;4.45;;;1.20;;
67665;SDS011;54448;51.472;-2.574;2023-08-30T10:42:09;9.98;;;1.17;;
67665;SDS011;54448;51.472;-2.574;2023-08-30T10:44:46;6.10;;;1.27;;
67665;SDS011;54448;51.472;-2.574;2023-08-30T10:47:24;4.75;;;1.05;;
67665;SDS011;54448;51.472;-2.574;2023-08-30T10:49:55;5.25;;;1.42;;
67665;SDS011;54448;51.472;-2.574;2023-08-30T10:52:22;5.57;;;1.10;;
67665;SDS011;54448;51.472;-2.574;2023-08-30T10:54:47;3.75;;;1.10;;
67665;SDS011;54448;51.472;-2.574;2023-08-30T10:57:14;6.38;;;1.58;;
67665;SDS011;54448;51.472;-2.574;2023-08-30T10:59:40;5.40;;;1.30;;
67665;SDS011;54448;51.472;-2.574;2023-08-30T11:02:06;5.85;;;1.33;;
67665;SDS011;54448;51.472;-2.574;2023-08-30T11:04:31;6.75;;;1.40;;
67665;SDS011;54448;51.472;-2.574;2023-08-30T11:06:57;7.32;;;1.45;;
67665;SDS011;54448;51.472;-2.574;2023-08-30T11:09:23;9.13;;;1.20;;
67665;SDS011;54448;51.472;-2.574;2023-08-30T11:11:49;9.60;;;1.50;;
67665;SDS011;54448;51.472;-2.574;2023-08-30T11:14:15;3.30;;;1.20;;
67665;SDS011;54448;51.472;-2.574;2023-08-30T11:16:41;9.13;;;1.73;;
67665;SDS011;54448;51.472;-2.574;2023-08-30T11:19:08;7.65;;;1.55;;
67665;SDS011;54448;51.472;-2.574;2023-08-30T11:21:35;4.13;;;1.13;;
67665;SDS011;54448;51.472;-2.574;2023-08-30T11:24:03;14.57;;;1.67;;
67665;SDS011;54448;51.472;-2.574;2023-08-30T11:26:29;7.38;;;1.48;;
67665;SDS011;54448;51.472;-2.574;2023-08-30T11:28:54;6.53;;;1.45;;
67665;SDS011;54448;51.472;-2.574;2023-08-30T11:33:50;3.40;;;1.10;;
67665;SDS011;54448;51.472;-2.574;2023-08-30T11:36:17;9.77;;;1.77;;
67665;SDS011;54448;51.472;-2.574;2023-08-30T11:38:43;6.65;;;1.65;;
67665;SDS011;54448;51.472;-2.574;2023-08-30T11:41:10;4.82;;;1.50;;
67665;SDS011;54448;51.472;-2.574;2023-08-30T11:43:35;6.97;;;1.42;;
67665;SDS011;54448;51.472;-2.574;2023-08-30T11:46:02;8.13;;;1.40;;
67665;SDS011;54448;51.472;-2.574;2023-08-30T11:48:28;58.17;;;5.03;;
67665;SDS011;54448;51.472;-2.574;2023-08-30T11:50:54;9.07;;;1.48;;
67665;SDS011;54448;51.472;-2.574;2023-08-30T11:53:19;11.13;;;1.48;;
67665;SDS011;54448;51.472;-2.574;2023-08-30T11:55:45;19.77;;;2.80;;
67665;SDS011;54448;51.472;-2.574;2023-08-30T11:58:10;38.45;;;3.78;;
67665;SDS011;54448;51.472;-2.574;2023-08-30T12:00:36;23.77;;;2.53;;
67665;SDS011;54448;51.472;-2.574;2023-08-30T12:03:03;12.07;;;1.98;;
67665;SDS011;54448;51.472;-2.574;2023-08-30T12:05:30;4.70;;;1.50;;
67665;SDS011;54448;51.472;-2.574;2023-08-30T12:07:59;3.45;;;1.20;;
67665;SDS011;54448;51.472;-2.574;2023-08-30T12:10:28;5.57;;;1.40;;
67665;SDS011;54448;51.472;-2.574;2023-08-30T12:12:54;5.05;;;1.00;;
67665;SDS011;54448;51.472;-2.574;2023-08-30T12:15:22;5.72;;;1.30;;
67665;SDS011;54448;51.472;-2.574;2023-08-30T12:17:49;9.45;;;1.10;;
67665;SDS011;54448;51.472;-2.574;2023-08-30T12:20:15;3.25;;;0.93;;
67665;SDS011;54448;51.472;-2.574;2023-08-30T12:22:42;4.80;;;1.13;;
67665;SDS011;54448;51.472;-2.574;2023-08-30T12:25:20;9.63;;;0.98;;
67665;SDS011;54448;51.472;-2.574;2023-08-30T12:27:48;8.07;;;1.08;;
67665;SDS011;54448;51.472;-2.574;2023-08-30T12:30:16;9.23;;;1.33;;
67665;SDS011;54448;51.472;-2.574;2023-08-30T12:32:42;2.42;;;1.20;;
67665;SDS011;54448;51.472;-2.574;2023-08-30T12:35:08;3.47;;;0.98;;
67665;SDS011;54448;51.472;-2.574;2023-08-30T12:37:34;3.78;;;1.27;;
67665;SDS011;54448;51.472;-2.574;2023-08-30T12:39:59;5.10;;;1.13;;
67665;SDS011;54448;51.472;-2.574;2023-08-30T12:42:25;3.58;;;1.55;;
67665;SDS011;54448;51.472;-2.574;2023-08-30T12:44:51;3.92;;;1.10;;
67665;SDS011;54448;51.472;-2.574;2023-08-30T12:47:16;11.55;;;1.20;;
67665;SDS011;54448;51.472;-2.574;2023-08-30T12:49:42;6.35;;;1.27;;
67665;SDS011;54448;51.472;-2.574;2023-08-30T12:52:07;3.10;;;1.13;;
67665;SDS011;54448;51.472;-2.574;2023-08-30T12:54:32;6.72;;;1.10;;
67665;SDS011;54448;51.472;-2.574;2023-08-30T12:56:58;6.43;;;1.05;;
67665;SDS011;54448;51.472;-2.574;2023-08-30T12:59:23;4.25;;;1.50;;
67665;SDS011;54448;51.472;-2.574;2023-08-30T13:01:49;3.30;;;1.10;;
67665;SDS011;54448;51.472;-2.574;2023-08-30T13:04:14;4.18;;;1.30;;
67665;SDS011;54448;51.472;-2.574;2023-08-30T13:06:40;5.10;;;1.15;;
67665;SDS011;54448;51.472;-2.574;2023-08-30T13:09:05;5.13;;;1.20;;
67665;SDS011;54448;51.472;-2.574;2023-08-30T13:11:30;9.25;;;1.45;;
67665;SDS011;54448;51.472;-2.574;2023-08-30T13:13:57;6.57;;;1.50;;
67665;SDS011;54448;51.472;-2.574;2023-08-30T13:16:23;13.25;;;1.60;;
67665;SDS011;54448;51.472;-2.574;2023-08-30T13:18:49;5.20;;;1.67;;
67665;SDS011;54448;51.472;-2.574;2023-08-30T13:21:14;4.93;;;1.65;;
67665;SDS011;54448;51.472;-2.574;2023-08-30T13:23:39;6.75;;;1.63;;
67665;SDS011;54448;51.472;-2.574;2023-08-30T13:26:05;5.43;;;1.40;;
67665;SDS011;54448;51.472;-2.574;2023-08-30T13:28:30;8.90;;;1.73;;
67665;SDS011;54448;51.472;-2.574;2023-08-30T13:30:55;4.20;;;1.42;;
67665;SDS011;54448;51.472;-2.574;2023-08-30T13:33:21;7.18;;;1.83;;
67665;SDS011;54448;51.472;-2.574;2023-08-30T13:35:50;14.20;;;1.67;;
67665;SDS011;54448;51.472;-2.574;2023-08-30T13:38:19;4.20;;;1.35;;
67665;SDS011;54448;51.472;-2.574;2023-08-30T13:40:44;10.32;;;2.13;;
67665;SDS011;54448;51.472;-2.574;2023-08-30T13:43:10;5.88;;;1.63;;
67665;SDS011;54448;51.472;-2.574;2023-08-30T13:45:35;12.57;;;1.60;;
67665;SDS011;54448;51.472;-2.574;2023-08-30T13:48:01;6.85;;;1.65;;
67665;SDS011;54448;51.472;-2.574;2023-08-30T13:50:27;5.93;;;1.50;;
67665;SDS011;54448;51.472;-2.574;2023-08-30T13:52:57;6.05;;;1.70;;
67665;SDS011;54448;51.472;-2.574;2023-08-30T13:55:23;5.13;;;1.55;;
67665;SDS011;54448;51.472;-2.574;2023-08-30T13:57:48;13.98;;;1.70;;
67665;SDS011;54448;51.472;-2.574;2023-08-30T14:00:13;7.22;;;1.73;;
67665;SDS011;54448;51.472;-2.574;2023-08-30T14:02:39;5.85;;;1.55;;
67665;SDS011;54448;51.472;-2.574;2023-08-30T14:05:04;6.60;;;1.90;;
67665;SDS011;54448;51.472;-2.574;2023-08-30T14:07:30;9.95;;;3.08;;
67665;SDS011;54448;51.472;-2.574;2023-08-30T14:09:56;8.25;;;1.67;;
67665;SDS011;54448;51.472;-2.574;2023-08-30T14:12:22;6.03;;;1.52;;
67665;SDS011;54448;51.472;-2.574;2023-08-30T14:14:48;4.95;;;1.30;;
67665;SDS011;54448;51.472;-2.574;2023-08-30T14:17:13;5.20;;;1.52;;
67665;SDS011;54448;51.472;-2.574;2023-08-30T14:19:38;4.15;;;1.70;;
67665;SDS011;54448;51.472;-2.574;2023-08-30T14:22:04;7.03;;;1.60;;
67665;SDS011;54448;51.472;-2.574;2023-08-30T14:24:31;6.68;;;1.52;;
67665;SDS011;54448;51.472;-2.574;2023-08-30T14:26:57;7.95;;;1.65;;
67665;SDS011;54448;51.472;-2.574;2023-08-30T14:29:22;5.50;;;1.67;;